createdAt,value
2023-05-06T00:01:39.676Z,72.40
2023-05-06T00:04:07.467Z,72.60
2023-05-06T00:06:34.553Z,72.70
2023-05-06T00:09:01.442Z,72.90
2023-05-06T00:11:29.498Z,72.80
2023-05-06T00:13:56.479Z,72.60
2023-05-06T00:16:23.649Z,72.60
2023-05-06T00:18:50.773Z,72.70
2023-05-06T00:21:17.687Z,72.70
2023-05-06T00:23:46.168Z,72.80
2023-05-06T00:26:13.020Z,72.80
2023-05-06T00:28:39.910Z,72.90
2023-05-06T00:31:07.073Z,72.90
2023-05-06T00:33:33.966Z,72.90
2023-05-06T00:36:00.833Z,72.90
2023-05-06T00:38:27.796Z,72.80
2023-05-06T00:40:54.648Z,72.90
2023-05-06T00:43:21.642Z,72.90
2023-05-06T00:45:48.923Z,72.90
2023-05-06T00:48:16.892Z,72.90
2023-05-06T00:50:44.700Z,72.80
2023-05-06T00:53:13.030Z,72.90
2023-05-06T00:55:40.930Z,73.00
2023-05-06T00:58:08.479Z,72.90
2023-05-06T01:00:36.918Z,73.00
2023-05-06T01:03:06.248Z,72.90
2023-05-06T01:05:44.593Z,72.90
2023-05-06T01:08:21.677Z,73.00
2023-05-06T01:10:57.768Z,73.00
2023-05-06T01:13:47.752Z,73.00
2023-05-06T01:16:18.130Z,73.10
2023-05-06T01:18:45.493Z,73.20
2023-05-06T01:21:14.696Z,73.20
2023-05-06T01:24:11.090Z,73.30
2023-05-06T01:26:38.165Z,73.20
2023-05-06T01:29:05.146Z,73.30
2023-05-06T01:31:49.469Z,73.30
2023-05-06T01:34:28.013Z,73.20
2023-05-06T01:37:22.100Z,73.20
2023-05-06T01:39:50.162Z,73.20
2023-05-06T01:42:18.038Z,73.10
2023-05-06T01:44:45.269Z,73.20
2023-05-06T01:47:13.697Z,73.10
2023-05-06T01:49:40.661Z,73.30
2023-05-06T01:52:07.740Z,73.30
2023-05-06T01:54:34.733Z,73.30
2023-05-06T01:57:02.217Z,73.30
2023-05-06T01:59:29.726Z,73.20
2023-05-06T02:01:56.967Z,73.20
2023-05-06T02:04:23.877Z,73.20
2023-05-06T02:06:50.848Z,73.10
2023-05-06T02:09:17.714Z,73.10
2023-05-06T02:11:44.602Z,73.10
2023-05-06T02:14:11.513Z,73.10
2023-05-06T02:16:38.461Z,73.20
2023-05-06T02:19:06.440Z,73.10
2023-05-06T02:21:33.416Z,73.20
2023-05-06T02:24:00.294Z,73.30
2023-05-06T02:26:27.174Z,73.30
2023-05-06T02:28:54.058Z,73.30
2023-05-06T02:31:21.021Z,73.30
2023-05-06T02:33:47.970Z,73.30
2023-05-06T02:36:14.933Z,73.20
2023-05-06T02:38:41.954Z,73.30
2023-05-06T02:41:10.821Z,73.50
2023-05-06T02:43:37.716Z,73.50
2023-05-06T02:46:04.698Z,73.50
2023-05-06T02:48:31.589Z,73.50
2023-05-06T02:50:58.471Z,73.60
2023-05-06T02:53:25.649Z,73.60
2023-05-06T02:55:52.498Z,73.50
2023-05-06T02:58:20.659Z,73.60
2023-05-06T03:00:47.641Z,73.50
2023-05-06T03:03:17.944Z,73.50
2023-05-06T03:05:44.998Z,73.50
2023-05-06T03:08:11.895Z,73.40
2023-05-06T03:10:38.949Z,73.50
2023-05-06T03:13:05.937Z,73.40
2023-05-06T03:15:33.044Z,73.50
2023-05-06T03:18:00.235Z,73.30
2023-05-06T03:20:28.872Z,73.30
2023-05-06T03:22:56.512Z,73.40
2023-05-06T03:25:23.371Z,73.40
2023-05-06T03:27:50.319Z,73.40
2023-05-06T03:30:17.268Z,73.30
2023-05-06T03:32:44.916Z,73.30
2023-05-06T03:35:12.096Z,73.30
2023-05-06T03:37:39.331Z,73.30
2023-05-06T03:40:07.680Z,73.30
2023-05-06T03:42:34.642Z,73.30
2023-05-06T03:45:01.544Z,73.20
2023-05-06T03:47:28.485Z,73.20
2023-05-06T03:49:55.334Z,73.20
2023-05-06T03:52:22.182Z,73.30
2023-05-06T03:54:49.763Z,73.30
2023-05-06T03:57:16.973Z,73.10
2023-05-06T03:59:43.832Z,73.00
2023-05-06T04:02:11.819Z,72.90
2023-05-06T04:04:38.719Z,73.00
2023-05-06T04:07:05.647Z,73.10
2023-05-06T04:09:34.129Z,73.20
2023-05-06T04:12:02.935Z,73.10
2023-05-06T04:14:29.903Z,73.20
2023-05-06T04:16:56.748Z,73.10
2023-05-06T04:19:23.703Z,73.00
2023-05-06T04:21:50.900Z,73.00
2023-05-06T04:24:17.832Z,73.00
2023-05-06T04:26:44.830Z,73.00
2023-05-06T04:29:11.798Z,73.10
2023-05-06T04:31:39.152Z,73.20
2023-05-06T04:34:06.067Z,73.20
2023-05-06T04:36:32.968Z,73.30
2023-05-06T04:38:59.870Z,73.50
2023-05-06T04:41:26.920Z,73.40
2023-05-06T04:43:53.781Z,73.70
2023-05-06T04:46:21.087Z,73.60
2023-05-06T04:48:48.204Z,73.50
2023-05-06T04:51:15.268Z,73.40
2023-05-06T04:53:42.147Z,73.30
2023-05-06T04:56:09.261Z,73.30
2023-05-06T04:58:36.220Z,73.40
2023-05-06T05:01:05.572Z,73.40
2023-05-06T05:03:32.718Z,73.50
2023-05-06T05:06:00.085Z,73.50
2023-05-06T05:08:28.378Z,73.40
2023-05-06T05:10:55.277Z,73.50
2023-05-06T05:13:22.191Z,73.40
2023-05-06T05:15:49.115Z,73.30
2023-05-06T05:18:16.013Z,73.30
2023-05-06T05:20:43.102Z,73.20
2023-05-06T05:23:10.004Z,73.10
2023-05-06T05:25:36.860Z,73.10
2023-05-06T05:28:04.183Z,73.00
2023-05-06T05:30:31.026Z,73.00
2023-05-06T05:32:58.027Z,72.80
2023-05-06T05:35:25.033Z,72.80
2023-05-06T05:37:51.943Z,72.60
2023-05-06T05:40:18.867Z,72.60
2023-05-06T05:42:46.081Z,72.60
2023-05-06T05:45:13.004Z,72.60
2023-05-06T05:47:40.102Z,72.60
2023-05-06T05:50:08.880Z,72.40
2023-05-06T05:52:35.764Z,72.40
2023-05-06T05:55:02.628Z,72.20
2023-05-06T05:57:29.690Z,72.40
2023-05-06T05:59:56.660Z,72.30
2023-05-06T06:02:23.837Z,72.20
2023-05-06T06:04:50.955Z,72.10
2023-05-06T06:07:18.025Z,72.00
2023-05-06T06:09:46.853Z,71.90
2023-05-06T06:12:13.756Z,71.80
2023-05-06T06:14:40.699Z,71.70
2023-05-06T06:17:08.913Z,71.70
2023-05-06T06:19:35.770Z,71.70
2023-05-06T06:22:02.614Z,71.60
2023-05-06T06:24:29.582Z,71.60
2023-05-06T06:26:56.602Z,71.60
2023-05-06T06:29:23.450Z,71.50
2023-05-06T06:31:50.423Z,71.50
2023-05-06T06:34:17.500Z,72.00
2023-05-06T06:36:45.435Z,71.30
2023-05-06T06:39:13.069Z,71.30
2023-05-06T06:41:40.199Z,71.20
2023-05-06T06:44:07.132Z,71.30
2023-05-06T06:46:34.428Z,71.30
2023-05-06T06:49:04.640Z,71.20
2023-05-06T06:51:32.073Z,71.30
2023-05-06T06:53:58.925Z,71.30
2023-05-06T06:56:26.064Z,71.20
2023-05-06T06:58:53.577Z,71.10
2023-05-06T07:01:20.678Z,71.10
2023-05-06T07:03:47.750Z,71.00
2023-05-06T07:06:14.625Z,71.00
2023-05-06T07:08:41.691Z,71.00
2023-05-06T07:11:08.541Z,70.90
2023-05-06T07:13:35.451Z,70.80
2023-05-06T07:16:02.309Z,70.90
2023-05-06T07:18:29.235Z,70.90
2023-05-06T07:20:56.393Z,70.90
2023-05-06T07:23:23.272Z,70.80
2023-05-06T07:25:50.170Z,70.90
2023-05-06T07:28:17.108Z,70.90
2023-05-06T07:30:45.469Z,70.90
2023-05-06T07:33:12.503Z,70.90
2023-05-06T07:35:39.392Z,70.80
2023-05-06T07:38:06.234Z,70.90
2023-05-06T07:40:33.374Z,70.90
2023-05-06T07:43:01.290Z,70.90
2023-05-06T07:45:29.821Z,70.90
2023-05-06T07:47:56.720Z,71.10
2023-05-06T07:50:23.629Z,71.20
2023-05-06T07:52:50.654Z,71.30
2023-05-06T07:55:17.609Z,71.20
2023-05-06T07:57:46.186Z,71.20
2023-05-06T08:00:14.385Z,71.30
2023-05-06T08:02:44.632Z,71.40
2023-05-06T08:05:11.899Z,71.40
2023-05-06T08:07:41.371Z,71.60
2023-05-06T08:10:09.804Z,71.80
2023-05-06T08:12:37.719Z,71.70
2023-05-06T08:15:06.416Z,71.70
2023-05-06T08:17:33.308Z,71.70
2023-05-06T08:20:00.300Z,71.70
2023-05-06T08:22:27.223Z,71.80
2023-05-06T08:24:54.895Z,71.80
2023-05-06T08:27:21.876Z,71.80
2023-05-06T08:29:48.819Z,71.80
2023-05-06T08:32:15.812Z,71.70
2023-05-06T08:34:42.707Z,71.80
2023-05-06T08:37:09.695Z,71.80
2023-05-06T08:39:36.793Z,71.80
2023-05-06T08:42:05.271Z,71.70
2023-05-06T08:44:33.761Z,71.80
2023-05-06T08:47:00.954Z,71.70
2023-05-06T08:49:28.702Z,71.70
2023-05-06T08:51:57.657Z,71.70
2023-05-06T08:54:27.618Z,71.70
2023-05-06T08:56:57.682Z,71.70
2023-05-06T08:59:26.862Z,71.70
2023-05-06T09:01:53.743Z,71.70
2023-05-06T09:04:20.983Z,71.70
2023-05-06T09:06:49.125Z,71.60
2023-05-06T09:09:16.001Z,71.70
2023-05-06T09:11:42.894Z,71.70
2023-05-06T09:14:14.950Z,71.70
2023-05-06T09:16:53.203Z,71.70
2023-05-06T09:19:22.425Z,71.60
2023-05-06T09:21:50.746Z,69.80
2023-05-06T09:24:18.010Z,66.50
2023-05-06T09:26:46.816Z,61.40
2023-05-06T09:29:14.046Z,61.50
2023-05-06T09:31:46.794Z,62.50
2023-05-06T09:34:14.685Z,63.70
2023-05-06T09:36:41.791Z,64.00
2023-05-06T09:39:10.244Z,64.20
2023-05-06T09:41:37.556Z,64.00
2023-05-06T09:44:04.758Z,64.10
2023-05-06T09:46:31.947Z,64.00
2023-05-06T09:48:59.444Z,64.20
2023-05-06T09:51:28.651Z,64.30
2023-05-06T09:53:57.944Z,64.10
2023-05-06T09:56:26.128Z,63.90
2023-05-06T09:58:54.562Z,64.50
2023-05-06T10:01:35.428Z,64.50
2023-05-06T10:04:09.076Z,64.50
2023-05-06T10:06:39.422Z,64.80
2023-05-06T10:09:08.289Z,65.00
2023-05-06T10:11:35.999Z,65.10
2023-05-06T10:14:04.336Z,65.90
2023-05-06T10:16:33.301Z,65.50
2023-05-06T10:19:00.855Z,65.80
2023-05-06T10:21:32.521Z,65.60
2023-05-06T10:24:09.144Z,65.60
2023-05-06T10:26:37.678Z,65.70
2023-05-06T10:29:10.354Z,65.80
2023-05-06T10:31:49.136Z,65.80
2023-05-06T10:34:19.611Z,66.00
2023-05-06T10:36:47.917Z,66.00
2023-05-06T10:39:15.176Z,66.00
2023-05-06T10:41:42.129Z,66.10
2023-05-06T10:44:10.191Z,66.20
2023-05-06T10:47:00.652Z,66.30
2023-05-06T10:49:27.979Z,66.40
2023-05-06T10:52:15.012Z,66.40
2023-05-06T10:54:51.934Z,66.50
2023-05-06T10:57:22.373Z,66.60
2023-05-06T10:59:49.298Z,66.60
2023-05-06T11:02:20.107Z,67.00
2023-05-06T11:04:53.139Z,66.80
2023-05-06T11:07:24.563Z,66.80
2023-05-06T11:09:58.698Z,66.90
2023-05-06T11:12:52.611Z,67.00
2023-05-06T11:15:40.573Z,67.00
2023-05-06T11:18:29.305Z,67.10
2023-05-06T11:21:05.104Z,67.20
2023-05-06T11:24:00.222Z,67.30
2023-05-06T11:26:28.314Z,68.00
2023-05-06T11:28:55.901Z,67.40
2023-05-06T11:31:23.129Z,67.40
2023-05-06T11:33:52.476Z,67.50
2023-05-06T11:36:21.289Z,67.60
2023-05-06T11:38:51.294Z,67.70
2023-05-06T11:41:18.878Z,67.70
2023-05-06T11:43:53.491Z,67.70
2023-05-06T11:46:22.209Z,67.70
2023-05-06T11:48:50.481Z,67.90
2023-05-06T11:51:22.720Z,67.80
2023-05-06T11:53:49.629Z,68.00
2023-05-06T11:56:16.600Z,68.10
2023-05-06T11:58:44.095Z,68.10
2023-05-06T12:01:11.021Z,68.10
2023-05-06T12:03:38.103Z,68.20
2023-05-06T12:06:05.188Z,68.20
2023-05-06T12:08:37.037Z,68.30
2023-05-06T12:11:09.189Z,68.40
2023-05-06T12:13:36.970Z,68.40
2023-05-06T12:16:05.212Z,68.40
2023-05-06T12:18:32.763Z,68.40
2023-05-06T12:21:06.061Z,68.60
2023-05-06T12:23:34.118Z,68.60
2023-05-06T12:26:09.268Z,68.60
2023-05-06T12:28:37.318Z,68.70
2023-05-06T12:31:20.913Z,68.60
2023-05-06T12:33:49.913Z,68.70
2023-05-06T12:36:17.945Z,68.80
2023-05-06T12:39:01.695Z,68.80
2023-05-06T12:41:46.163Z,68.80
2023-05-06T12:44:38.946Z,68.90
2023-05-06T12:47:19.079Z,69.00
2023-05-06T12:49:50.376Z,69.00
2023-05-06T12:52:19.116Z,69.00
2023-05-06T12:54:46.346Z,69.10
2023-05-06T12:57:13.474Z,69.10
2023-05-06T12:59:40.734Z,69.10
2023-05-06T13:02:07.764Z,69.10
2023-05-06T13:04:34.690Z,69.10
2023-05-06T13:07:01.668Z,69.10
2023-05-06T13:09:28.677Z,69.10
2023-05-06T13:11:55.750Z,69.20
2023-05-06T13:14:23.292Z,69.20
2023-05-06T13:16:50.390Z,69.30
2023-05-06T13:19:31.607Z,69.30
2023-05-06T13:22:00.507Z,69.30
2023-05-06T13:24:27.780Z,69.30
2023-05-06T13:26:56.424Z,69.30
2023-05-06T13:29:23.889Z,69.40
2023-05-06T13:31:51.599Z,69.40
2023-05-06T13:34:18.877Z,69.40
2023-05-06T13:36:46.871Z,69.40
2023-05-06T13:39:13.968Z,69.40
2023-05-06T13:41:40.869Z,69.50
2023-05-06T13:44:28.368Z,69.40
2023-05-06T13:47:09.284Z,69.50
2023-05-06T13:49:39.415Z,69.50
2023-05-06T13:52:08.289Z,69.60
2023-05-06T13:54:38.446Z,69.60
2023-05-06T13:57:20.230Z,69.70
2023-05-06T13:59:48.465Z,69.80
2023-05-06T14:02:17.433Z,69.70
2023-05-06T14:04:47.981Z,69.80
2023-05-06T14:07:21.490Z,70.40
2023-05-06T14:09:49.177Z,69.80
2023-05-06T14:12:23.928Z,69.80
2023-05-06T14:14:50.804Z,69.80
2023-05-06T14:17:17.665Z,69.80
2023-05-06T14:19:44.575Z,69.80
2023-05-06T14:22:12.667Z,69.90
2023-05-06T14:24:39.525Z,69.90
2023-05-06T14:27:07.650Z,70.00
2023-05-06T14:29:35.928Z,70.00
2023-05-06T14:32:03.104Z,69.90
2023-05-06T14:34:34.287Z,70.00
2023-05-06T14:37:01.201Z,70.00
2023-05-06T14:39:28.077Z,70.00
2023-05-06T14:41:55.154Z,70.60
2023-05-06T14:44:22.335Z,70.00
2023-05-06T14:46:50.372Z,70.00
2023-05-06T14:49:17.228Z,70.00
2023-05-06T14:51:45.884Z,70.10
2023-05-06T14:54:14.130Z,70.00
2023-05-06T14:56:41.471Z,70.10
2023-05-06T14:59:08.301Z,70.10
2023-05-06T15:01:35.935Z,70.10
2023-05-06T15:04:02.883Z,70.10
2023-05-06T15:06:29.811Z,70.10
2023-05-06T15:08:56.787Z,70.20
2023-05-06T15:11:23.684Z,70.20
2023-05-06T15:13:51.035Z,70.20
2023-05-06T15:16:17.971Z,70.20
2023-05-06T15:18:47.366Z,70.20
2023-05-06T15:21:14.787Z,70.30
2023-05-06T15:23:45.379Z,70.30
2023-05-06T15:26:12.699Z,70.30
2023-05-06T15:28:47.204Z,70.30
2023-05-06T15:31:14.123Z,70.30
2023-05-06T15:33:41.016Z,70.20
2023-05-06T15:36:08.267Z,70.30
2023-05-06T15:38:59.102Z,70.30
2023-05-06T15:41:32.335Z,70.30
2023-05-06T15:44:01.262Z,70.30
2023-05-06T15:46:29.539Z,70.40
2023-05-06T15:49:15.817Z,70.40
2023-05-06T15:51:44.418Z,70.40
2023-05-06T15:54:11.416Z,70.50
2023-05-06T15:56:41.417Z,70.50
2023-05-06T15:59:08.912Z,70.50
2023-05-06T16:02:16.657Z,70.40
2023-05-06T16:04:25.935Z,70.50
2023-05-06T16:06:53.191Z,70.50
2023-05-06T16:09:21.635Z,70.50
2023-05-06T16:11:49.646Z,70.50
2023-05-06T16:14:16.661Z,70.40
2023-05-06T16:16:43.714Z,70.50
2023-05-06T16:19:10.732Z,70.50
2023-05-06T16:21:37.631Z,71.10
2023-05-06T16:24:04.667Z,70.50
2023-05-06T16:26:31.744Z,70.50
2023-05-06T16:28:59.607Z,70.50
2023-05-06T16:31:27.568Z,70.50
2023-05-06T16:33:56.989Z,70.60
2023-05-06T16:36:24.009Z,70.60
2023-05-06T16:38:51.969Z,70.60
2023-05-06T16:41:19.832Z,70.60
2023-05-06T16:43:46.828Z,70.60
2023-05-06T16:46:13.747Z,70.60
2023-05-06T16:48:40.931Z,70.60
2023-05-06T16:51:07.978Z,70.60
2023-05-06T16:53:42.530Z,70.70
2023-05-06T16:56:09.574Z,70.80
2023-05-06T16:58:37.232Z,70.80
2023-05-06T17:01:08.193Z,70.90
2023-05-06T17:03:37.964Z,70.90
2023-05-06T17:06:05.243Z,70.80
2023-05-06T17:08:36.117Z,70.80
2023-05-06T17:11:06.502Z,70.90
2023-05-06T17:13:33.813Z,71.00
2023-05-06T17:16:00.928Z,71.00
2023-05-06T17:18:27.851Z,71.00
2023-05-06T17:20:57.024Z,71.00
2023-05-06T17:23:24.868Z,71.00
2023-05-06T17:25:51.802Z,71.00
2023-05-06T17:28:19.121Z,71.00
2023-05-06T17:30:47.579Z,70.90
2023-05-06T17:33:14.511Z,71.00
2023-05-06T17:35:41.456Z,71.00
2023-05-06T17:38:11.197Z,71.00
2023-05-06T17:40:38.250Z,71.00
2023-05-06T17:43:07.372Z,70.70
2023-05-06T17:45:34.400Z,70.30
2023-05-06T17:48:02.534Z,69.90
2023-05-06T17:50:31.904Z,69.80
2023-05-06T17:52:59.788Z,69.70
2023-05-06T17:55:26.936Z,69.50
2023-05-06T17:57:54.174Z,69.30
2023-05-06T18:00:22.266Z,69.90
2023-05-06T18:02:49.293Z,69.80
2023-05-06T18:05:19.681Z,70.00
2023-05-06T18:07:46.919Z,70.30
2023-05-06T18:10:14.238Z,70.40
2023-05-06T18:12:42.356Z,70.40
2023-05-06T18:15:14.356Z,70.30
2023-05-06T18:17:41.358Z,70.30
2023-05-06T18:20:18.752Z,70.30
2023-05-06T18:22:46.680Z,70.20
2023-05-06T18:25:13.859Z,70.80
2023-05-06T18:27:41.010Z,70.20
2023-05-06T18:30:08.859Z,70.20
2023-05-06T18:35:24.083Z,70.50
2023-05-06T18:37:51.191Z,70.40
2023-05-06T18:40:18.577Z,70.40
2023-05-06T18:42:47.642Z,70.30
2023-05-06T18:45:15.135Z,70.30
2023-05-06T18:47:42.048Z,70.40
2023-05-06T18:50:10.674Z,70.40
2023-05-06T18:52:41.006Z,70.30
2023-05-06T18:55:09.016Z,70.30
2023-05-06T18:57:38.631Z,70.30
2023-05-06T19:00:09.351Z,70.30
2023-05-06T19:02:37.328Z,70.20
2023-05-06T19:05:06.538Z,70.20
2023-05-06T19:07:33.402Z,70.20
2023-05-06T19:10:01.252Z,70.20
2023-05-06T19:12:31.276Z,70.20
2023-05-06T19:14:58.403Z,70.20
2023-05-06T19:17:25.420Z,70.20
2023-05-06T19:19:52.540Z,70.20
2023-05-06T19:22:22.303Z,70.20
2023-05-06T19:24:51.764Z,70.10
2023-05-06T19:27:18.626Z,70.20
2023-05-06T19:29:45.492Z,70.20
2023-05-06T19:32:13.736Z,70.30
2023-05-06T19:34:42.061Z,70.40
2023-05-06T19:37:10.066Z,70.30
2023-05-06T19:39:38.368Z,70.30
2023-05-06T19:42:10.689Z,70.30
2023-05-06T19:44:37.620Z,70.30
2023-05-06T19:47:06.876Z,70.30
2023-05-06T19:49:33.790Z,70.20
2023-05-06T19:52:03.165Z,70.20
2023-05-06T19:54:38.526Z,70.20
2023-05-06T19:57:14.122Z,70.20
2023-05-06T19:59:47.142Z,70.20
2023-05-06T20:02:18.095Z,70.30
2023-05-06T20:04:54.164Z,70.40
2023-05-06T20:07:23.003Z,70.60
2023-05-06T20:10:02.262Z,70.60
2023-05-06T20:12:37.509Z,70.60
2023-05-06T20:15:04.781Z,70.70
2023-05-06T20:17:33.874Z,70.70
2023-05-06T20:20:04.281Z,70.70
2023-05-06T20:22:33.098Z,70.80
2023-05-06T20:25:16.708Z,71.00
2023-05-06T20:27:44.511Z,71.10
2023-05-06T20:30:11.528Z,71.20
2023-05-06T20:32:41.108Z,71.40
2023-05-06T20:35:10.996Z,72.00
2023-05-06T20:37:39.017Z,72.40
2023-05-06T20:40:08.954Z,72.50
2023-05-06T20:42:37.491Z,73.00
2023-05-06T20:45:04.929Z,73.00
2023-05-06T20:47:31.937Z,73.10
2023-05-06T20:50:00.007Z,73.20
2023-05-06T20:52:26.989Z,73.30
2023-05-06T20:54:54.710Z,73.50
2023-05-06T20:57:23.379Z,73.50
2023-05-06T20:59:51.855Z,73.40
2023-05-06T21:02:18.791Z,73.30
2023-05-06T21:04:46.265Z,73.40
2023-05-06T21:07:14.872Z,73.30
2023-05-06T21:09:41.752Z,73.30
2023-05-06T21:12:08.733Z,73.30
2023-05-06T21:14:35.585Z,73.20
2023-05-06T21:17:02.505Z,73.30
2023-05-06T21:19:30.607Z,73.20
2023-05-06T21:21:58.071Z,73.30
2023-05-06T21:24:24.959Z,73.30
2023-05-06T21:26:51.923Z,73.40
2023-05-06T21:29:18.823Z,73.20
2023-05-06T21:31:45.739Z,73.90
2023-05-06T21:34:12.743Z,74.20
2023-05-06T21:36:47.900Z,74.20
2023-05-06T21:39:16.862Z,74.40
2023-05-06T21:41:43.899Z,74.50
2023-05-06T21:44:11.800Z,74.60
2023-05-06T21:46:40.940Z,75.20
2023-05-06T21:49:10.609Z,85.00
2023-05-06T21:51:37.582Z,74.80
2023-05-06T21:54:04.590Z,74.70
2023-05-06T21:56:42.475Z,74.70
2023-05-06T21:59:09.450Z,75.00
2023-05-06T22:01:36.425Z,75.10
2023-05-06T22:04:13.096Z,75.10
2023-05-06T22:06:40.539Z,75.20
2023-05-06T22:09:09.897Z,75.30
2023-05-06T22:11:38.511Z,75.50
2023-05-06T22:14:06.878Z,75.70
2023-05-06T22:16:35.512Z,78.60
2023-05-06T22:19:04.044Z,83.60
2023-05-06T22:21:32.024Z,81.50
2023-05-06T22:23:59.169Z,75.70
2023-05-06T22:26:28.262Z,77.50
2023-05-06T22:28:59.603Z,84.80
2023-05-06T22:31:26.568Z,91.80
2023-05-06T22:33:57.898Z,91.70
2023-05-06T22:36:29.239Z,92.00
2023-05-06T22:38:56.536Z,79.80
2023-05-06T22:41:23.399Z,76.60
2023-05-06T22:43:52.940Z,76.30
2023-05-06T22:46:19.812Z,76.20
2023-05-06T22:48:47.097Z,76.30
2023-05-06T22:51:16.845Z,76.90
2023-05-06T22:53:43.880Z,78.20
2023-05-06T22:56:11.671Z,76.30
2023-05-06T22:58:38.608Z,76.30
2023-05-06T23:01:08.357Z,76.30
2023-05-06T23:03:36.111Z,76.30
2023-05-06T23:06:04.486Z,76.40
2023-05-06T23:08:31.565Z,76.30
2023-05-06T23:10:58.469Z,76.30
2023-05-06T23:13:26.845Z,76.30
2023-05-06T23:15:53.876Z,76.30
2023-05-06T23:18:20.932Z,76.40
2023-05-06T23:20:48.120Z,76.30
2023-05-06T23:23:15.017Z,77.90
2023-05-06T23:25:43.196Z,78.00
2023-05-06T23:28:10.085Z,97.00
2023-05-06T23:30:37.063Z,93.70
2023-05-06T23:33:05.087Z,94.20
2023-05-06T23:35:32.688Z,94.30
2023-05-06T23:38:00.914Z,95.00
2023-05-06T23:40:27.836Z,94.50
2023-05-06T23:42:54.750Z,93.50
2023-05-06T23:45:21.696Z,93.00
2023-05-06T23:47:48.666Z,92.80
2023-05-06T23:50:16.551Z,92.40
2023-05-06T23:52:43.450Z,92.70
2023-05-06T23:55:10.766Z,92.60
2023-05-06T23:57:37.977Z,92.50
